sensor_id;sensor_type;location;lat;lon;timestamp;P1;durP1;ratioP1;P2;durP2;ratioP2
77146;SDS011;66121;52.584;9.694;2023-01-13T00:02:08;3.63;;;2.78;;
77146;SDS011;66121;52.584;9.694;2023-01-13T00:04:34;4.15;;;2.10;;
77146;SDS011;66121;52.584;9.694;2023-01-13T00:06:59;2.87;;;2.13;;
77146;SDS011;66121;52.584;9.694;2023-01-13T00:09:24;3.40;;;2.30;;
77146;SDS011;66121;52.584;9.694;2023-01-13T00:11:50;2.87;;;2.30;;
77146;SDS011;66121;52.584;9.694;2023-01-13T00:14:15;4.13;;;2.37;;
77146;SDS011;66121;52.584;9.694;2023-01-13T00:16:41;2.85;;;2.17;;
77146;SDS011;66121;52.584;9.694;2023-01-13T00:19:06;3.10;;;2.30;;
77146;SDS011;66121;52.584;9.694;2023-01-13T00:21:32;3.30;;;2.40;;
77146;SDS011;66121;52.584;9.694;2023-01-13T00:23:57;2.85;;;2.30;;
77146;SDS011;66121;52.584;9.694;2023-01-13T00:26:24;4.47;;;2.40;;
77146;SDS011;66121;52.584;9.694;2023-01-13T00:28:55;4.07;;;2.40;;
77146;SDS011;66121;52.584;9.694;2023-01-13T00:31:22;4.53;;;2.60;;
77146;SDS011;66121;52.584;9.694;2023-01-13T00:33:47;4.50;;;3.10;;
77146;SDS011;66121;52.584;9.694;2023-01-13T00:36:15;5.10;;;3.28;;
77146;SDS011;66121;52.584;9.694;2023-01-13T00:38:43;4.22;;;3.38;;
77146;SDS011;66121;52.584;9.694;2023-01-13T00:41:10;5.53;;;3.75;;
77146;SDS011;66121;52.584;9.694;2023-01-13T00:43:37;5.88;;;3.78;;
77146;SDS011;66121;52.584;9.694;2023-01-13T00:46:04;4.13;;;3.25;;
77146;SDS011;66121;52.584;9.694;2023-01-13T00:48:30;7.45;;;3.30;;
77146;SDS011;66121;52.584;9.694;2023-01-13T00:51:06;5.22;;;3.72;;
77146;SDS011;66121;52.584;9.694;2023-01-13T00:53:36;3.92;;;3.08;;
77146;SDS011;66121;52.584;9.694;2023-01-13T00:56:06;4.85;;;3.50;;
77146;SDS011;66121;52.584;9.694;2023-01-13T00:58:43;4.80;;;3.30;;
77146;SDS011;66121;52.584;9.694;2023-01-13T01:01:19;5.50;;;3.78;;
77146;SDS011;66121;52.584;9.694;2023-01-13T01:03:46;4.13;;;2.88;;
77146;SDS011;66121;52.584;9.694;2023-01-13T01:06:13;4.35;;;3.20;;
77146;SDS011;66121;52.584;9.694;2023-01-13T01:08:41;4.75;;;2.80;;
77146;SDS011;66121;52.584;9.694;2023-01-13T01:11:07;4.07;;;2.55;;
77146;SDS011;66121;52.584;9.694;2023-01-13T01:16:05;4.03;;;2.47;;
77146;SDS011;66121;52.584;9.694;2023-01-13T01:18:36;3.90;;;2.42;;
77146;SDS011;66121;52.584;9.694;2023-01-13T01:21:04;3.55;;;2.40;;
77146;SDS011;66121;52.584;9.694;2023-01-13T01:23:30;3.13;;;2.30;;
77146;SDS011;66121;52.584;9.694;2023-01-13T01:26:38;6.43;;;2.85;;
77146;SDS011;66121;52.584;9.694;2023-01-13T01:28:46;4.30;;;2.55;;
77146;SDS011;66121;52.584;9.694;2023-01-13T01:33:40;4.03;;;2.58;;
77146;SDS011;66121;52.584;9.694;2023-01-13T01:36:06;6.25;;;2.55;;
77146;SDS011;66121;52.584;9.694;2023-01-13T01:38:32;3.60;;;2.50;;
77146;SDS011;66121;52.584;9.694;2023-01-13T01:40:58;2.73;;;2.00;;
77146;SDS011;66121;52.584;9.694;2023-01-13T01:43:42;3.50;;;2.42;;
77146;SDS011;66121;52.584;9.694;2023-01-13T01:48:52;3.85;;;2.30;;
77146;SDS011;66121;52.584;9.694;2023-01-13T01:51:19;3.40;;;2.20;;
77146;SDS011;66121;52.584;9.694;2023-01-13T01:53:45;2.58;;;2.38;;
77146;SDS011;66121;52.584;9.694;2023-01-13T01:56:12;6.03;;;2.28;;
77146;SDS011;66121;52.584;9.694;2023-01-13T01:58:42;5.68;;;1.98;;
77146;SDS011;66121;52.584;9.694;2023-01-13T02:01:14;7.68;;;1.90;;
77146;SDS011;66121;52.584;9.694;2023-01-13T02:03:40;3.03;;;2.28;;
77146;SDS011;66121;52.584;9.694;2023-01-13T02:06:09;4.82;;;2.00;;
77146;SDS011;66121;52.584;9.694;2023-01-13T02:08:37;10.52;;;2.50;;
77146;SDS011;66121;52.584;9.694;2023-01-13T02:11:04;3.75;;;2.30;;
77146;SDS011;66121;52.584;9.694;2023-01-13T02:13:29;6.00;;;2.00;;
77146;SDS011;66121;52.584;9.694;2023-01-13T02:16:01;3.47;;;2.20;;
77146;SDS011;66121;52.584;9.694;2023-01-13T02:18:39;2.58;;;1.95;;
77146;SDS011;66121;52.584;9.694;2023-01-13T02:21:36;4.05;;;2.17;;
77146;SDS011;66121;52.584;9.694;2023-01-13T02:38:51;2.53;;;1.90;;
77146;SDS011;66121;52.584;9.694;2023-01-13T02:41:32;6.45;;;2.20;;
77146;SDS011;66121;52.584;9.694;2023-01-13T02:44:24;5.18;;;2.05;;
77146;SDS011;66121;52.584;9.694;2023-01-13T02:46:53;4.90;;;2.10;;
77146;SDS011;66121;52.584;9.694;2023-01-13T02:49:33;4.15;;;1.98;;
77146;SDS011;66121;52.584;9.694;2023-01-13T02:52:05;6.53;;;2.00;;
77146;SDS011;66121;52.584;9.694;2023-01-13T02:54:34;3.45;;;1.83;;
77146;SDS011;66121;52.584;9.694;2023-01-13T02:57:03;6.05;;;2.42;;
77146;SDS011;66121;52.584;9.694;2023-01-13T02:59:32;6.85;;;2.53;;
77146;SDS011;66121;52.584;9.694;2023-01-13T03:01:59;2.80;;;1.90;;
77146;SDS011;66121;52.584;9.694;2023-01-13T03:04:44;4.65;;;2.30;;
77146;SDS011;66121;52.584;9.694;2023-01-13T03:07:21;7.35;;;2.38;;
77146;SDS011;66121;52.584;9.694;2023-01-13T03:09:54;6.05;;;2.13;;
77146;SDS011;66121;52.584;9.694;2023-01-13T03:15:09;4.53;;;2.17;;
77146;SDS011;66121;52.584;9.694;2023-01-13T03:17:53;3.17;;;1.92;;
77146;SDS011;66121;52.584;9.694;2023-01-13T03:20:28;4.63;;;2.03;;
77146;SDS011;66121;52.584;9.694;2023-01-13T03:25:33;4.82;;;1.60;;
77146;SDS011;66121;52.584;9.694;2023-01-13T03:28:09;6.15;;;2.13;;
77146;SDS011;66121;52.584;9.694;2023-01-13T03:30:56;3.20;;;1.90;;
77146;SDS011;66121;52.584;9.694;2023-01-13T03:33:28;8.85;;;2.00;;
77146;SDS011;66121;52.584;9.694;2023-01-13T03:35:58;4.57;;;1.80;;
77146;SDS011;66121;52.584;9.694;2023-01-13T03:38:32;10.98;;;2.20;;
77146;SDS011;66121;52.584;9.694;2023-01-13T03:41:03;5.63;;;1.52;;
77146;SDS011;66121;52.584;9.694;2023-01-13T03:43:37;5.47;;;1.90;;
77146;SDS011;66121;52.584;9.694;2023-01-13T03:46:32;4.60;;;2.17;;
77146;SDS011;66121;52.584;9.694;2023-01-13T03:49:23;6.72;;;2.58;;
77146;SDS011;66121;52.584;9.694;2023-01-13T03:51:54;8.48;;;2.15;;
77146;SDS011;66121;52.584;9.694;2023-01-13T03:54:23;5.80;;;2.00;;
77146;SDS011;66121;52.584;9.694;2023-01-13T03:56:58;8.50;;;2.40;;
77146;SDS011;66121;52.584;9.694;2023-01-13T03:59:30;10.98;;;2.38;;
77146;SDS011;66121;52.584;9.694;2023-01-13T04:02:08;10.40;;;2.55;;
77146;SDS011;66121;52.584;9.694;2023-01-13T04:04:59;4.82;;;2.33;;
77146;SDS011;66121;52.584;9.694;2023-01-13T04:10:13;4.88;;;2.30;;
77146;SDS011;66121;52.584;9.694;2023-01-13T04:12:45;9.55;;;2.40;;
77146;SDS011;66121;52.584;9.694;2023-01-13T04:15:26;8.82;;;3.00;;
77146;SDS011;66121;52.584;9.694;2023-01-13T04:17:57;9.23;;;2.80;;
77146;SDS011;66121;52.584;9.694;2023-01-13T04:20:26;9.20;;;2.10;;
77146;SDS011;66121;52.584;9.694;2023-01-13T04:22:51;9.38;;;3.00;;
77146;SDS011;66121;52.584;9.694;2023-01-13T04:25:17;8.93;;;2.40;;
77146;SDS011;66121;52.584;9.694;2023-01-13T04:27:42;10.23;;;2.40;;
77146;SDS011;66121;52.584;9.694;2023-01-13T04:30:08;10.98;;;2.53;;
77146;SDS011;66121;52.584;9.694;2023-01-13T04:32:34;11.05;;;2.72;;
77146;SDS011;66121;52.584;9.694;2023-01-13T04:35:01;11.60;;;2.83;;
77146;SDS011;66121;52.584;9.694;2023-01-13T04:37:27;11.02;;;3.63;;
77146;SDS011;66121;52.584;9.694;2023-01-13T04:39:53;10.00;;;2.58;;
77146;SDS011;66121;52.584;9.694;2023-01-13T04:42:18;13.52;;;2.45;;
77146;SDS011;66121;52.584;9.694;2023-01-13T04:44:43;14.07;;;2.80;;
77146;SDS011;66121;52.584;9.694;2023-01-13T04:47:09;15.43;;;3.20;;
77146;SDS011;66121;52.584;9.694;2023-01-13T04:49:34;8.67;;;2.77;;
77146;SDS011;66121;52.584;9.694;2023-01-13T04:51:59;13.98;;;2.47;;
77146;SDS011;66121;52.584;9.694;2023-01-13T04:54:26;15.93;;;3.13;;
77146;SDS011;66121;52.584;9.694;2023-01-13T04:56:51;8.88;;;2.50;;
77146;SDS011;66121;52.584;9.694;2023-01-13T04:59:16;7.50;;;2.20;;
77146;SDS011;66121;52.584;9.694;2023-01-13T05:01:42;10.52;;;3.25;;
77146;SDS011;66121;52.584;9.694;2023-01-13T05:04:07;11.93;;;2.77;;
77146;SDS011;66121;52.584;9.694;2023-01-13T05:06:33;13.52;;;2.97;;
77146;SDS011;66121;52.584;9.694;2023-01-13T05:08:58;13.57;;;3.50;;
77146;SDS011;66121;52.584;9.694;2023-01-13T05:11:24;12.25;;;2.38;;
77146;SDS011;66121;52.584;9.694;2023-01-13T05:14:07;15.25;;;2.85;;
77146;SDS011;66121;52.584;9.694;2023-01-13T05:16:52;18.60;;;3.38;;
77146;SDS011;66121;52.584;9.694;2023-01-13T05:19:35;8.90;;;2.58;;
77146;SDS011;66121;52.584;9.694;2023-01-13T05:22:04;10.70;;;2.72;;
77146;SDS011;66121;52.584;9.694;2023-01-13T05:24:48;13.82;;;2.78;;
77146;SDS011;66121;52.584;9.694;2023-01-13T05:27:33;14.75;;;3.17;;
77146;SDS011;66121;52.584;9.694;2023-01-13T05:29:58;16.73;;;3.10;;
77146;SDS011;66121;52.584;9.694;2023-01-13T05:32:24;11.15;;;2.53;;
77146;SDS011;66121;52.584;9.694;2023-01-13T05:34:52;15.27;;;2.80;;
77146;SDS011;66121;52.584;9.694;2023-01-13T05:37:17;17.52;;;2.70;;
77146;SDS011;66121;52.584;9.694;2023-01-13T05:39:43;10.40;;;2.70;;
77146;SDS011;66121;52.584;9.694;2023-01-13T05:42:26;18.25;;;3.53;;
77146;SDS011;66121;52.584;9.694;2023-01-13T05:45:10;13.27;;;3.13;;
77146;SDS011;66121;52.584;9.694;2023-01-13T05:47:36;20.13;;;3.60;;
77146;SDS011;66121;52.584;9.694;2023-01-13T05:50:02;18.17;;;3.45;;
77146;SDS011;66121;52.584;9.694;2023-01-13T05:52:28;15.00;;;4.28;;
77146;SDS011;66121;52.584;9.694;2023-01-13T05:54:53;16.55;;;3.80;;
77146;SDS011;66121;52.584;9.694;2023-01-13T05:57:18;17.43;;;3.43;;
77146;SDS011;66121;52.584;9.694;2023-01-13T05:59:44;12.53;;;2.63;;
77146;SDS011;66121;52.584;9.694;2023-01-13T06:02:09;15.17;;;2.33;;
77146;SDS011;66121;52.584;9.694;2023-01-13T06:04:34;12.50;;;3.57;;
77146;SDS011;66121;52.584;9.694;2023-01-13T06:06:59;11.20;;;2.80;;
77146;SDS011;66121;52.584;9.694;2023-01-13T06:09:25;15.50;;;3.07;;
77146;SDS011;66121;52.584;9.694;2023-01-13T06:11:50;13.18;;;2.80;;
77146;SDS011;66121;52.584;9.694;2023-01-13T06:14:15;15.00;;;3.45;;
77146;SDS011;66121;52.584;9.694;2023-01-13T06:16:41;15.80;;;2.90;;
77146;SDS011;66121;52.584;9.694;2023-01-13T06:19:06;15.27;;;2.75;;
77146;SDS011;66121;52.584;9.694;2023-01-13T06:21:33;12.90;;;2.63;;
77146;SDS011;66121;52.584;9.694;2023-01-13T06:23:59;11.75;;;3.47;;
77146;SDS011;66121;52.584;9.694;2023-01-13T06:26:24;10.30;;;2.70;;
77146;SDS011;66121;52.584;9.694;2023-01-13T06:28:52;16.02;;;3.90;;
77146;SDS011;66121;52.584;9.694;2023-01-13T06:31:18;19.97;;;3.10;;
77146;SDS011;66121;52.584;9.694;2023-01-13T06:33:45;13.98;;;2.97;;
77146;SDS011;66121;52.584;9.694;2023-01-13T06:36:15;19.70;;;2.88;;
77146;SDS011;66121;52.584;9.694;2023-01-13T06:38:46;14.93;;;2.60;;
77146;SDS011;66121;52.584;9.694;2023-01-13T06:41:14;12.18;;;2.97;;
77146;SDS011;66121;52.584;9.694;2023-01-13T06:43:40;20.60;;;3.25;;
77146;SDS011;66121;52.584;9.694;2023-01-13T06:46:06;18.48;;;4.97;;
77146;SDS011;66121;52.584;9.694;2023-01-13T06:48:32;21.83;;;4.35;;
77146;SDS011;66121;52.584;9.694;2023-01-13T06:50:59;15.38;;;4.47;;
77146;SDS011;66121;52.584;9.694;2023-01-13T06:53:25;12.85;;;3.40;;
77146;SDS011;66121;52.584;9.694;2023-01-13T06:55:50;19.95;;;4.28;;
77146;SDS011;66121;52.584;9.694;2023-01-13T06:58:16;11.33;;;3.03;;
77146;SDS011;66121;52.584;9.694;2023-01-13T07:00:41;15.57;;;4.15;;
77146;SDS011;66121;52.584;9.694;2023-01-13T07:03:08;18.67;;;3.85;;
77146;SDS011;66121;52.584;9.694;2023-01-13T07:05:37;16.15;;;4.47;;
77146;SDS011;66121;52.584;9.694;2023-01-13T07:08:03;17.02;;;5.00;;
77146;SDS011;66121;52.584;9.694;2023-01-13T07:10:30;16.08;;;4.45;;
77146;SDS011;66121;52.584;9.694;2023-01-13T07:12:58;16.40;;;4.07;;
77146;SDS011;66121;52.584;9.694;2023-01-13T07:15:51;16.52;;;4.20;;
77146;SDS011;66121;52.584;9.694;2023-01-13T07:18:20;18.27;;;3.85;;
77146;SDS011;66121;52.584;9.694;2023-01-13T07:20:50;16.23;;;3.40;;
77146;SDS011;66121;52.584;9.694;2023-01-13T07:23:17;16.50;;;4.68;;
77146;SDS011;66121;52.584;9.694;2023-01-13T07:25:42;16.80;;;4.00;;
77146;SDS011;66121;52.584;9.694;2023-01-13T07:28:07;14.20;;;3.87;;
77146;SDS011;66121;52.584;9.694;2023-01-13T07:30:32;9.27;;;3.50;;
77146;SDS011;66121;52.584;9.694;2023-01-13T07:32:58;14.30;;;3.33;;
77146;SDS011;66121;52.584;9.694;2023-01-13T07:35:23;15.97;;;3.93;;
77146;SDS011;66121;52.584;9.694;2023-01-13T07:37:48;8.15;;;2.70;;
77146;SDS011;66121;52.584;9.694;2023-01-13T07:40:14;15.05;;;3.90;;
77146;SDS011;66121;52.584;9.694;2023-01-13T07:42:39;12.55;;;3.20;;
77146;SDS011;66121;52.584;9.694;2023-01-13T07:45:23;14.88;;;2.78;;
77146;SDS011;66121;52.584;9.694;2023-01-13T07:47:49;8.57;;;2.60;;
77146;SDS011;66121;52.584;9.694;2023-01-13T07:50:16;12.38;;;2.17;;
77146;SDS011;66121;52.584;9.694;2023-01-13T07:52:41;12.55;;;3.22;;
77146;SDS011;66121;52.584;9.694;2023-01-13T07:55:07;10.23;;;2.37;;
77146;SDS011;66121;52.584;9.694;2023-01-13T07:57:32;10.15;;;2.33;;
77146;SDS011;66121;52.584;9.694;2023-01-13T07:59:58;10.23;;;2.27;;
77146;SDS011;66121;52.584;9.694;2023-01-13T08:02:23;10.17;;;2.20;;
77146;SDS011;66121;52.584;9.694;2023-01-13T08:04:48;9.85;;;2.40;;
77146;SDS011;66121;52.584;9.694;2023-01-13T08:07:14;9.33;;;2.30;;
77146;SDS011;66121;52.584;9.694;2023-01-13T08:09:39;14.25;;;3.67;;
77146;SDS011;66121;52.584;9.694;2023-01-13T08:12:04;7.83;;;2.33;;
77146;SDS011;66121;52.584;9.694;2023-01-13T08:14:48;10.48;;;2.95;;
77146;SDS011;66121;52.584;9.694;2023-01-13T08:17:15;14.55;;;2.78;;
77146;SDS011;66121;52.584;9.694;2023-01-13T08:19:40;12.93;;;2.37;;
77146;SDS011;66121;52.584;9.694;2023-01-13T08:22:06;6.87;;;2.50;;
77146;SDS011;66121;52.584;9.694;2023-01-13T08:24:31;8.60;;;2.00;;
77146;SDS011;66121;52.584;9.694;2023-01-13T08:26:56;7.63;;;2.53;;
77146;SDS011;66121;52.584;9.694;2023-01-13T08:29:22;6.13;;;2.33;;
77146;SDS011;66121;52.584;9.694;2023-01-13T08:31:47;10.23;;;2.33;;
77146;SDS011;66121;52.584;9.694;2023-01-13T08:34:12;10.60;;;2.67;;
77146;SDS011;66121;52.584;9.694;2023-01-13T08:36:38;6.13;;;2.97;;
77146;SDS011;66121;52.584;9.694;2023-01-13T08:39:03;7.20;;;2.30;;
77146;SDS011;66121;52.584;9.694;2023-01-13T08:41:28;11.77;;;3.00;;
77146;SDS011;66121;52.584;9.694;2023-01-13T08:44:12;10.63;;;2.20;;
77146;SDS011;66121;52.584;9.694;2023-01-13T08:46:38;13.38;;;2.90;;
77146;SDS011;66121;52.584;9.694;2023-01-13T08:49:03;7.47;;;2.25;;
77146;SDS011;66121;52.584;9.694;2023-01-13T08:51:28;13.52;;;2.60;;
77146;SDS011;66121;52.584;9.694;2023-01-13T08:53:54;9.32;;;2.70;;
77146;SDS011;66121;52.584;9.694;2023-01-13T08:56:19;12.27;;;3.05;;
77146;SDS011;66121;52.584;9.694;2023-01-13T08:58:44;11.27;;;2.30;;
77146;SDS011;66121;52.584;9.694;2023-01-13T09:01:11;9.10;;;2.17;;
77146;SDS011;66121;52.584;9.694;2023-01-13T09:03:39;10.00;;;2.90;;
77146;SDS011;66121;52.584;9.694;2023-01-13T09:06:05;7.47;;;2.13;;
77146;SDS011;66121;52.584;9.694;2023-01-13T09:08:31;14.13;;;2.75;;
77146;SDS011;66121;52.584;9.694;2023-01-13T09:10:57;8.43;;;2.70;;
77146;SDS011;66121;52.584;9.694;2023-01-13T09:13:22;14.30;;;3.20;;
77146;SDS011;66121;52.584;9.694;2023-01-13T09:15:47;11.63;;;2.77;;
77146;SDS011;66121;52.584;9.694;2023-01-13T09:18:13;9.80;;;2.40;;
77146;SDS011;66121;52.584;9.694;2023-01-13T09:20:38;7.13;;;2.47;;
77146;SDS011;66121;52.584;9.694;2023-01-13T09:23:04;6.05;;;2.10;;
77146;SDS011;66121;52.584;9.694;2023-01-13T09:25:30;11.88;;;2.50;;
77146;SDS011;66121;52.584;9.694;2023-01-13T09:27:56;15.13;;;2.95;;
77146;SDS011;66121;52.584;9.694;2023-01-13T09:30:22;9.85;;;2.70;;
77146;SDS011;66121;52.584;9.694;2023-01-13T09:32:47;10.68;;;2.50;;
77146;SDS011;66121;52.584;9.694;2023-01-13T09:35:12;10.10;;;2.37;;
77146;SDS011;66121;52.584;9.694;2023-01-13T09:37:39;10.43;;;3.40;;
77146;SDS011;66121;52.584;9.694;2023-01-13T09:40:06;11.18;;;2.78;;
77146;SDS011;66121;52.584;9.694;2023-01-13T09:45:44;12.15;;;3.72;;
77146;SDS011;66121;52.584;9.694;2023-01-13T09:50:48;13.63;;;2.78;;
77146;SDS011;66121;52.584;9.694;2023-01-13T09:53:26;8.07;;;2.90;;
77146;SDS011;66121;52.584;9.694;2023-01-13T09:55:56;10.18;;;2.63;;
77146;SDS011;66121;52.584;9.694;2023-01-13T09:58:21;11.25;;;3.03;;
77146;SDS011;66121;52.584;9.694;2023-01-13T10:00:50;16.75;;;4.18;;
77146;SDS011;66121;52.584;9.694;2023-01-13T10:03:36;7.95;;;2.20;;
77146;SDS011;66121;52.584;9.694;2023-01-13T10:06:09;11.63;;;2.67;;
77146;SDS011;66121;52.584;9.694;2023-01-13T10:08:46;11.50;;;3.55;;
77146;SDS011;66121;52.584;9.694;2023-01-13T10:11:22;15.88;;;3.17;;
77146;SDS011;66121;52.584;9.694;2023-01-13T10:17:12;7.13;;;2.67;;
77146;SDS011;66121;52.584;9.694;2023-01-13T10:28:00;9.05;;;2.58;;
77146;SDS011;66121;52.584;9.694;2023-01-13T10:30:33;11.10;;;2.70;;
77146;SDS011;66121;52.584;9.694;2023-01-13T10:33:09;6.80;;;2.25;;
77146;SDS011;66121;52.584;9.694;2023-01-13T10:38:17;9.02;;;2.65;;
77146;SDS011;66121;52.584;9.694;2023-01-13T10:40:49;8.95;;;2.40;;
77146;SDS011;66121;52.584;9.694;2023-01-13T10:43:17;11.77;;;3.55;;
77146;SDS011;66121;52.584;9.694;2023-01-13T10:45:49;10.68;;;2.90;;
77146;SDS011;66121;52.584;9.694;2023-01-13T10:48:18;11.07;;;3.35;;
77146;SDS011;66121;52.584;9.694;2023-01-13T10:50:43;16.50;;;3.47;;
77146;SDS011;66121;52.584;9.694;2023-01-13T10:53:21;8.15;;;2.30;;
77146;SDS011;66121;52.584;9.694;2023-01-13T10:55:58;9.85;;;2.13;;
77146;SDS011;66121;52.584;9.694;2023-01-13T10:58:26;6.90;;;2.25;;
77146;SDS011;66121;52.584;9.694;2023-01-13T11:00:58;8.70;;;2.28;;
77146;SDS011;66121;52.584;9.694;2023-01-13T11:03:38;7.05;;;2.05;;
77146;SDS011;66121;52.584;9.694;2023-01-13T11:06:05;13.60;;;2.55;;
77146;SDS011;66121;52.584;9.694;2023-01-13T11:08:39;8.38;;;2.42;;
77146;SDS011;66121;52.584;9.694;2023-01-13T11:14:00;10.48;;;2.58;;
77146;SDS011;66121;52.584;9.694;2023-01-13T11:16:48;9.38;;;2.65;;
77146;SDS011;66121;52.584;9.694;2023-01-13T11:19:17;10.98;;;2.67;;
77146;SDS011;66121;52.584;9.694;2023-01-13T11:24:20;10.10;;;2.28;;
77146;SDS011;66121;52.584;9.694;2023-01-13T11:29:38;8.27;;;2.53;;
77146;SDS011;66121;52.584;9.694;2023-01-13T11:32:08;6.57;;;2.10;;
77146;SDS011;66121;52.584;9.694;2023-01-13T11:34:38;10.07;;;2.20;;
77146;SDS011;66121;52.584;9.694;2023-01-13T11:37:11;15.20;;;2.80;;
77146;SDS011;66121;52.584;9.694;2023-01-13T11:47:54;16.55;;;2.65;;
77146;SDS011;66121;52.584;9.694;2023-01-13T11:50:34;10.18;;;2.72;;
77146;SDS011;66121;52.584;9.694;2023-01-13T11:53:11;6.72;;;1.98;;
77146;SDS011;66121;52.584;9.694;2023-01-13T12:03:43;12.40;;;2.28;;
77146;SDS011;66121;52.584;9.694;2023-01-13T12:06:18;7.35;;;2.33;;
77146;SDS011;66121;52.584;9.694;2023-01-13T12:12:14;13.80;;;3.47;;
77146;SDS011;66121;52.584;9.694;2023-01-13T12:20:24;10.05;;;2.83;;
77146;SDS011;66121;52.584;9.694;2023-01-13T12:23:19;14.45;;;2.63;;
77146;SDS011;66121;52.584;9.694;2023-01-13T12:26:05;16.55;;;2.40;;
77146;SDS011;66121;52.584;9.694;2023-01-13T12:31:18;11.30;;;2.40;;
77146;SDS011;66121;52.584;9.694;2023-01-13T12:36:33;12.43;;;3.78;;
77146;SDS011;66121;52.584;9.694;2023-01-13T12:39:08;28.08;;;10.00;;
77146;SDS011;66121;52.584;9.694;2023-01-13T12:42:17;9.75;;;3.13;;
77146;SDS011;66121;52.584;9.694;2023-01-13T12:47:35;15.13;;;3.03;;
77146;SDS011;66121;52.584;9.694;2023-01-13T12:52:46;8.57;;;2.70;;
77146;SDS011;66121;52.584;9.694;2023-01-13T12:55:12;12.38;;;3.55;;
77146;SDS011;66121;52.584;9.694;2023-01-13T12:57:53;14.60;;;3.70;;
77146;SDS011;66121;52.584;9.694;2023-01-13T13:00:21;14.40;;;5.20;;
77146;SDS011;66121;52.584;9.694;2023-01-13T13:08:19;11.82;;;4.13;;
77146;SDS011;66121;52.584;9.694;2023-01-13T13:13:39;17.17;;;3.50;;
77146;SDS011;66121;52.584;9.694;2023-01-13T13:18:49;6.75;;;1.73;;
77146;SDS011;66121;52.584;9.694;2023-01-13T13:21:14;10.00;;;2.80;;
77146;SDS011;66121;52.584;9.694;2023-01-13T13:26:26;11.27;;;2.08;;
77146;SDS011;66121;52.584;9.694;2023-01-13T13:31:51;10.23;;;2.63;;
77146;SDS011;66121;52.584;9.694;2023-01-13T13:35:01;18.10;;;2.97;;
77146;SDS011;66121;52.584;9.694;2023-01-13T13:40:41;10.38;;;2.53;;
77146;SDS011;66121;52.584;9.694;2023-01-13T13:43:28;9.98;;;3.00;;
77146;SDS011;66121;52.584;9.694;2023-01-13T13:51:40;12.10;;;2.40;;
77146;SDS011;66121;52.584;9.694;2023-01-13T13:54:17;11.30;;;2.65;;
77146;SDS011;66121;52.584;9.694;2023-01-13T13:56:45;9.88;;;2.50;;
77146;SDS011;66121;52.584;9.694;2023-01-13T13:59:14;10.73;;;3.15;;
77146;SDS011;66121;52.584;9.694;2023-01-13T14:01:43;9.85;;;2.85;;
77146;SDS011;66121;52.584;9.694;2023-01-13T14:06:47;10.23;;;2.45;;
77146;SDS011;66121;52.584;9.694;2023-01-13T14:09:18;10.55;;;2.40;;
77146;SDS011;66121;52.584;9.694;2023-01-13T14:11:52;12.32;;;2.60;;
77146;SDS011;66121;52.584;9.694;2023-01-13T14:14:25;10.90;;;2.42;;
77146;SDS011;66121;52.584;9.694;2023-01-13T14:16:51;7.72;;;2.85;;
77146;SDS011;66121;52.584;9.694;2023-01-13T14:19:34;13.15;;;2.40;;
77146;SDS011;66121;52.584;9.694;2023-01-13T14:22:00;14.02;;;2.75;;
77146;SDS011;66121;52.584;9.694;2023-01-13T14:24:27;9.35;;;2.45;;
77146;SDS011;66121;52.584;9.694;2023-01-13T14:27:05;7.38;;;2.40;;
77146;SDS011;66121;52.584;9.694;2023-01-13T14:29:32;11.30;;;3.35;;
77146;SDS011;66121;52.584;9.694;2023-01-13T14:31:57;10.45;;;2.20;;
77146;SDS011;66121;52.584;9.694;2023-01-13T14:34:23;7.35;;;2.75;;
77146;SDS011;66121;52.584;9.694;2023-01-13T14:36:52;6.22;;;1.83;;
77146;SDS011;66121;52.584;9.694;2023-01-13T14:39:25;11.88;;;2.65;;
77146;SDS011;66121;52.584;9.694;2023-01-13T14:41:58;11.20;;;3.00;;
77146;SDS011;66121;52.584;9.694;2023-01-13T14:47:01;10.45;;;2.42;;
77146;SDS011;66121;52.584;9.694;2023-01-13T14:52:23;9.52;;;2.25;;
77146;SDS011;66121;52.584;9.694;2023-01-13T14:55:33;9.05;;;1.92;;
77146;SDS011;66121;52.584;9.694;2023-01-13T14:57:44;7.45;;;2.28;;
77146;SDS011;66121;52.584;9.694;2023-01-13T15:02:39;12.45;;;3.10;;
77146;SDS011;66121;52.584;9.694;2023-01-13T15:11:25;8.00;;;2.33;;
77146;SDS011;66121;52.584;9.694;2023-01-13T15:15:55;8.57;;;2.35;;
77146;SDS011;66121;52.584;9.694;2023-01-13T15:18:21;8.45;;;2.50;;
77146;SDS011;66121;52.584;9.694;2023-01-13T15:20:47;9.95;;;2.20;;
77146;SDS011;66121;52.584;9.694;2023-01-13T15:23:14;7.78;;;2.20;;
77146;SDS011;66121;52.584;9.694;2023-01-13T15:25:41;13.23;;;2.97;;
77146;SDS011;66121;52.584;9.694;2023-01-13T15:28:10;8.45;;;2.33;;
77146;SDS011;66121;52.584;9.694;2023-01-13T15:30:49;12.05;;;2.42;;
77146;SDS011;66121;52.584;9.694;2023-01-13T15:33:16;7.65;;;2.20;;
77146;SDS011;66121;52.584;9.694;2023-01-13T15:35:44;13.00;;;2.47;;
77146;SDS011;66121;52.584;9.694;2023-01-13T15:38:16;8.23;;;2.05;;
77146;SDS011;66121;52.584;9.694;2023-01-13T15:40:44;8.10;;;2.22;;
77146;SDS011;66121;52.584;9.694;2023-01-13T15:43:14;11.52;;;2.55;;
77146;SDS011;66121;52.584;9.694;2023-01-13T15:46:00;9.23;;;2.20;;
77146;SDS011;66121;52.584;9.694;2023-01-13T15:49:02;6.78;;;1.92;;
77146;SDS011;66121;52.584;9.694;2023-01-13T15:51:34;9.57;;;2.28;;
77146;SDS011;66121;52.584;9.694;2023-01-13T15:54:00;13.60;;;3.08;;
77146;SDS011;66121;52.584;9.694;2023-01-13T15:56:26;8.52;;;2.30;;
77146;SDS011;66121;52.584;9.694;2023-01-13T15:58:52;9.55;;;2.65;;
77146;SDS011;66121;52.584;9.694;2023-01-13T16:01:17;9.02;;;2.67;;
77146;SDS011;66121;52.584;9.694;2023-01-13T16:03:43;8.02;;;2.35;;
77146;SDS011;66121;52.584;9.694;2023-01-13T16:06:15;7.95;;;2.80;;
77146;SDS011;66121;52.584;9.694;2023-01-13T16:08:43;10.93;;;2.72;;
77146;SDS011;66121;52.584;9.694;2023-01-13T16:11:09;9.85;;;2.38;;
77146;SDS011;66121;52.584;9.694;2023-01-13T16:13:37;8.20;;;2.15;;
77146;SDS011;66121;52.584;9.694;2023-01-13T16:16:02;8.00;;;2.40;;
77146;SDS011;66121;52.584;9.694;2023-01-13T16:18:36;13.35;;;2.83;;
77146;SDS011;66121;52.584;9.694;2023-01-13T16:21:01;4.47;;;2.30;;
77146;SDS011;66121;52.584;9.694;2023-01-13T16:23:27;11.38;;;2.90;;
77146;SDS011;66121;52.584;9.694;2023-01-13T16:25:52;11.87;;;3.00;;
77146;SDS011;66121;52.584;9.694;2023-01-13T16:28:19;12.30;;;2.40;;
77146;SDS011;66121;52.584;9.694;2023-01-13T16:30:44;14.10;;;2.70;;
77146;SDS011;66121;52.584;9.694;2023-01-13T16:33:09;10.50;;;2.28;;
77146;SDS011;66121;52.584;9.694;2023-01-13T16:35:35;8.60;;;2.23;;
77146;SDS011;66121;52.584;9.694;2023-01-13T16:38:00;8.23;;;2.10;;
77146;SDS011;66121;52.584;9.694;2023-01-13T16:40:29;5.82;;;2.05;;
77146;SDS011;66121;52.584;9.694;2023-01-13T16:42:59;10.30;;;2.03;;
77146;SDS011;66121;52.584;9.694;2023-01-13T16:45:27;9.02;;;2.70;;
77146;SDS011;66121;52.584;9.694;2023-01-13T16:47:52;8.48;;;2.22;;
77146;SDS011;66121;52.584;9.694;2023-01-13T16:52:59;7.40;;;1.83;;
77146;SDS011;66121;52.584;9.694;2023-01-13T16:55:24;6.93;;;2.07;;
77146;SDS011;66121;52.584;9.694;2023-01-13T16:57:50;8.85;;;2.58;;
77146;SDS011;66121;52.584;9.694;2023-01-13T17:00:16;9.18;;;2.67;;
77146;SDS011;66121;52.584;9.694;2023-01-13T17:02:42;8.07;;;1.90;;
77146;SDS011;66121;52.584;9.694;2023-01-13T17:05:09;11.45;;;2.20;;
77146;SDS011;66121;52.584;9.694;2023-01-13T17:07:37;5.30;;;2.22;;
77146;SDS011;66121;52.584;9.694;2023-01-13T17:10:05;10.05;;;2.25;;
77146;SDS011;66121;52.584;9.694;2023-01-13T17:12:31;7.28;;;2.25;;
77146;SDS011;66121;52.584;9.694;2023-01-13T17:14:56;15.67;;;2.30;;
77146;SDS011;66121;52.584;9.694;2023-01-13T17:17:25;7.83;;;2.20;;
77146;SDS011;66121;52.584;9.694;2023-01-13T17:19:51;12.32;;;3.22;;